createdAt,value
2024-01-11T00:01:47.879Z,-5.12
2024-01-11T00:04:14.769Z,-5.10
2024-01-11T00:06:43.296Z,-5.14
2024-01-11T00:09:09.823Z,-5.16
2024-01-11T00:11:36.425Z,-5.18
2024-01-11T00:14:03.765Z,-5.19
2024-01-11T00:16:31.051Z,-5.19
2024-01-11T00:18:57.682Z,-5.18
2024-01-11T00:21:24.200Z,-5.17
2024-01-11T00:23:50.827Z,-5.17
2024-01-11T00:26:17.368Z,-5.17
2024-01-11T00:28:43.893Z,-5.18
2024-01-11T00:31:10.576Z,-5.21
2024-01-11T00:33:37.381Z,-5.25
2024-01-11T00:36:04.887Z,-5.27
2024-01-11T00:38:31.406Z,-5.32
2024-01-11T00:40:57.945Z,-5.38
2024-01-11T00:43:24.449Z,-5.39
2024-01-11T00:45:50.845Z,-5.43
2024-01-11T00:48:17.472Z,-5.46
2024-01-11T00:50:44.245Z,-5.48
2024-01-11T00:53:12.083Z,-5.52
2024-01-11T00:55:38.582Z,-5.54
2024-01-11T00:58:04.983Z,-5.55
2024-01-11T01:00:32.022Z,-5.55
2024-01-11T01:02:58.426Z,-5.53
2024-01-11T01:05:24.992Z,-5.53
2024-01-11T01:07:51.463Z,-5.56
2024-01-11T01:10:17.877Z,-5.55
2024-01-11T01:12:44.322Z,-5.54
2024-01-11T01:15:10.760Z,-5.56
2024-01-11T01:17:38.555Z,-5.56
2024-01-11T01:20:05.725Z,-5.58
2024-01-11T01:22:32.156Z,-5.58
2024-01-11T01:24:58.686Z,-5.59
2024-01-11T01:27:25.670Z,-5.59
2024-01-11T01:29:52.091Z,-5.59
2024-01-11T01:32:18.643Z,-5.62
2024-01-11T01:34:47.107Z,-5.64
2024-01-11T01:37:14.804Z,-5.67
2024-01-11T01:39:41.197Z,-5.67
2024-01-11T01:42:08.059Z,-5.68
2024-01-11T01:44:35.681Z,-5.68
2024-01-11T01:47:05.273Z,-5.69
2024-01-11T01:49:31.966Z,-5.71
2024-01-11T01:51:59.322Z,-5.72
2024-01-11T01:54:25.965Z,-5.72
2024-01-11T01:56:54.217Z,-5.75
2024-01-11T01:59:22.179Z,-5.74
2024-01-11T02:01:48.979Z,-5.73
2024-01-11T02:04:16.385Z,-5.71
2024-01-11T02:06:45.754Z,-5.74
2024-01-11T02:09:14.367Z,-5.75
2024-01-11T02:11:42.696Z,-5.76
2024-01-11T02:14:10.112Z,-5.74
2024-01-11T02:16:37.064Z,-5.75
2024-01-11T02:19:05.666Z,-5.75
2024-01-11T02:21:33.483Z,-5.77
2024-01-11T02:24:07.178Z,-5.83
2024-01-11T02:26:34.134Z,-5.83
2024-01-11T02:29:00.919Z,-5.84
2024-01-11T02:31:27.594Z,-5.86
2024-01-11T02:33:55.172Z,-5.89
2024-01-11T02:36:22.415Z,-5.96
2024-01-11T02:38:49.936Z,-5.97
2024-01-11T02:41:17.759Z,-5.94
2024-01-11T02:43:49.269Z,-5.95
2024-01-11T02:46:16.778Z,-5.94
2024-01-11T02:48:43.282Z,-5.96
2024-01-11T02:51:09.726Z,-5.96
2024-01-11T02:53:36.263Z,-5.98
2024-01-11T02:56:03.655Z,-6.02
2024-01-11T02:58:30.408Z,-6.03
2024-01-11T03:00:56.896Z,-6.01
2024-01-11T03:03:23.540Z,-5.98
2024-01-11T03:05:50.220Z,-5.96
2024-01-11T03:08:16.879Z,-5.95
2024-01-11T03:10:43.270Z,-5.93
2024-01-11T03:13:09.818Z,-5.92
2024-01-11T03:15:36.279Z,-5.93
2024-01-11T03:18:04.290Z,-5.93
2024-01-11T03:20:31.246Z,-5.95
2024-01-11T03:22:58.018Z,-5.96
2024-01-11T03:25:24.564Z,-5.96
2024-01-11T03:27:50.965Z,-5.96
2024-01-11T03:30:17.696Z,-5.97
2024-01-11T03:32:44.544Z,-5.98
2024-01-11T03:35:11.453Z,-5.99
2024-01-11T03:37:38.613Z,-6.02
2024-01-11T03:40:05.872Z,-6.03
2024-01-11T03:42:32.306Z,-6.03
2024-01-11T03:44:58.802Z,-6.03
2024-01-11T03:47:25.285Z,-6.01
2024-01-11T03:49:51.980Z,-6.03
2024-01-11T03:52:18.634Z,-6.01
2024-01-11T03:54:45.276Z,-6.00
2024-01-11T03:57:11.684Z,-6.00
2024-01-11T03:59:38.486Z,-5.99
2024-01-11T04:02:05.040Z,-6.04
2024-01-11T04:04:31.545Z,-6.05
2024-01-11T04:06:57.937Z,-6.05
2024-01-11T04:09:24.399Z,-6.02
2024-01-11T04:11:50.902Z,-6.07
2024-01-11T04:14:17.496Z,-6.11
2024-01-11T04:16:44.780Z,-6.14
2024-01-11T04:19:11.723Z,-6.17
2024-01-11T04:21:40.911Z,-6.18
2024-01-11T04:24:07.809Z,-6.16
2024-01-11T04:26:34.300Z,-6.18
2024-01-11T04:29:01.492Z,-6.18
2024-01-11T04:31:28.740Z,-6.20
2024-01-11T04:33:55.395Z,-6.23
2024-01-11T04:36:21.969Z,-6.25
2024-01-11T04:38:48.470Z,-6.28
2024-01-11T04:41:16.282Z,-6.27
2024-01-11T04:43:45.957Z,-6.29
2024-01-11T04:46:20.702Z,-6.30
2024-01-11T04:48:48.382Z,-6.31
2024-01-11T04:51:17.974Z,-6.33
2024-01-11T04:53:45.968Z,-6.33
2024-01-11T04:56:16.066Z,-6.35
2024-01-11T04:58:44.295Z,-6.37
2024-01-11T05:01:14.120Z,-6.38
2024-01-11T05:03:40.652Z,-6.41
2024-01-11T05:06:07.315Z,-6.41
2024-01-11T05:08:33.949Z,-6.43
2024-01-11T05:11:00.578Z,-6.42
2024-01-11T05:13:27.308Z,-6.43
2024-01-11T05:15:53.820Z,-6.40
2024-01-11T05:18:20.296Z,-6.39
2024-01-11T05:20:46.865Z,-6.37
2024-01-11T05:23:13.450Z,-6.35
2024-01-11T05:25:39.934Z,-6.36
2024-01-11T05:28:06.392Z,-6.35
2024-01-11T05:30:34.687Z,-6.37
2024-01-11T05:33:02.076Z,-6.35
2024-01-11T05:35:28.880Z,-6.33
2024-01-11T05:37:58.468Z,-6.34
2024-01-11T05:40:24.930Z,-6.32
2024-01-11T05:42:51.450Z,-6.29
2024-01-11T05:45:19.730Z,-6.28
2024-01-11T05:47:49.240Z,-6.32
2024-01-11T05:50:16.016Z,-6.31
2024-01-11T05:52:43.357Z,-6.32
2024-01-11T05:55:09.872Z,-6.36
2024-01-11T05:57:36.409Z,-6.35
2024-01-11T06:00:03.244Z,-6.33
2024-01-11T06:02:29.735Z,-6.32
2024-01-11T06:04:56.201Z,-6.31
2024-01-11T06:07:22.688Z,-6.29
2024-01-11T06:09:49.113Z,-6.28
2024-01-11T06:12:15.589Z,-6.27
2024-01-11T06:14:42.386Z,-6.26
2024-01-11T06:17:12.109Z,-6.25
2024-01-11T06:19:39.418Z,-6.22
2024-01-11T06:22:06.565Z,-6.19
2024-01-11T06:24:33.337Z,-6.25
2024-01-11T06:26:59.844Z,-6.35
2024-01-11T06:29:26.370Z,-6.32
2024-01-11T06:31:52.975Z,-6.28
2024-01-11T06:34:19.558Z,-6.25
2024-01-11T06:36:45.973Z,-6.25
2024-01-11T06:39:13.744Z,-6.25
2024-01-11T06:41:40.659Z,-6.27
2024-01-11T06:44:07.264Z,-6.26
2024-01-11T06:46:34.011Z,-6.28
2024-01-11T06:49:00.712Z,-6.32
2024-01-11T06:51:27.266Z,-6.34
2024-01-11T06:53:53.726Z,-6.34
2024-01-11T06:56:22.079Z,-6.29
2024-01-11T06:58:49.263Z,-6.26
2024-01-11T07:01:15.791Z,-6.27
2024-01-11T07:03:42.444Z,-6.28
2024-01-11T07:06:09.482Z,-6.31
2024-01-11T07:08:36.345Z,-6.35
2024-01-11T07:11:03.958Z,-6.37
2024-01-11T07:13:31.120Z,-6.37
2024-01-11T07:15:58.935Z,-6.36
2024-01-11T07:18:28.688Z,-6.36
2024-01-11T07:20:57.466Z,-6.34
2024-01-11T07:23:23.985Z,-6.33
2024-01-11T07:25:51.065Z,-6.33
2024-01-11T07:28:18.433Z,-6.29
2024-01-11T07:30:45.350Z,-6.32
2024-01-11T07:33:12.023Z,-6.36
2024-01-11T07:35:38.857Z,-6.39
2024-01-11T07:38:05.660Z,-6.38
2024-01-11T07:40:35.476Z,-6.34
2024-01-11T07:43:04.996Z,-6.29
2024-01-11T07:45:31.418Z,-6.28
2024-01-11T07:47:57.986Z,-6.27
2024-01-11T07:50:25.021Z,-6.24
2024-01-11T07:52:52.061Z,-6.22
2024-01-11T07:55:18.527Z,-6.25
2024-01-11T07:57:45.087Z,-6.19
2024-01-11T08:00:11.767Z,-6.16
2024-01-11T08:02:39.057Z,-6.13
2024-01-11T08:05:06.442Z,-6.11
2024-01-11T08:07:32.873Z,-6.08
2024-01-11T08:10:00.088Z,-6.05
2024-01-11T08:12:26.528Z,-6.02
2024-01-11T08:14:53.046Z,-5.99
2024-01-11T08:17:20.318Z,-5.97
2024-01-11T08:19:46.777Z,-5.97
2024-01-11T08:22:13.337Z,-5.96
2024-01-11T08:24:39.815Z,-5.96
2024-01-11T08:27:06.875Z,-5.89
2024-01-11T08:29:34.343Z,-5.78
2024-01-11T08:32:15.155Z,-5.67
2024-01-11T08:34:50.954Z,-5.65
2024-01-11T08:37:17.721Z,-5.62
2024-01-11T08:39:44.509Z,-5.59
2024-01-11T08:42:10.948Z,-5.57
2024-01-11T08:44:37.606Z,-5.53
2024-01-11T08:47:04.883Z,-5.49
2024-01-11T08:49:31.782Z,-5.40
2024-01-11T08:51:58.197Z,-5.34
2024-01-11T08:54:24.616Z,-5.28
2024-01-11T08:56:51.503Z,-5.19
2024-01-11T08:59:18.181Z,-5.12
2024-01-11T09:01:53.044Z,-5.10
2024-01-11T09:04:30.777Z,-5.03
2024-01-11T09:06:57.397Z,-4.99
2024-01-11T09:09:24.123Z,-4.93
2024-01-11T09:11:51.082Z,-4.86
2024-01-11T09:14:17.781Z,-4.82
2024-01-11T09:16:46.084Z,-4.77
2024-01-11T09:19:13.345Z,-4.72
2024-01-11T09:21:39.814Z,-4.62
2024-01-11T09:24:06.630Z,-4.48
2024-01-11T09:26:33.064Z,-4.14
2024-01-11T09:28:59.464Z,-4.02
2024-01-11T09:31:26.126Z,-4.00
2024-01-11T09:33:53.911Z,-3.99
2024-01-11T09:36:20.634Z,-3.94
2024-01-11T09:38:47.157Z,-3.87
2024-01-11T09:41:15.191Z,-3.78
2024-01-11T09:43:43.146Z,-3.71
2024-01-11T09:46:12.100Z,-3.65
2024-01-11T09:48:45.592Z,-3.55
2024-01-11T09:51:12.383Z,-3.51
2024-01-11T09:53:39.648Z,-3.45
2024-01-11T09:56:10.499Z,-3.41
2024-01-11T09:58:37.981Z,-3.39
2024-01-11T10:01:10.133Z,-3.35
2024-01-11T10:03:36.697Z,-3.32
2024-01-11T10:06:04.411Z,-3.28
2024-01-11T10:08:31.376Z,-3.22
2024-01-11T10:10:58.518Z,-3.14
2024-01-11T10:13:33.690Z,-3.07
2024-01-11T10:16:14.992Z,-3.00
2024-01-11T10:18:41.748Z,-2.95
2024-01-11T10:21:10.700Z,-2.89
2024-01-11T10:23:37.591Z,-2.82
2024-01-11T10:26:04.227Z,-2.76
2024-01-11T10:28:30.758Z,-2.72
2024-01-11T10:30:58.302Z,-2.68
2024-01-11T10:33:24.983Z,-2.60
2024-01-11T10:35:51.852Z,-2.53
2024-01-11T10:38:19.068Z,-2.48
2024-01-11T10:40:45.853Z,-2.40
2024-01-11T10:43:14.334Z,-2.38
2024-01-11T10:45:40.830Z,-2.30
2024-01-11T10:48:15.866Z,-2.22
2024-01-11T10:50:47.198Z,-2.18
2024-01-11T10:53:49.072Z,-2.10
2024-01-11T10:56:19.780Z,-2.04
2024-01-11T10:58:47.687Z,-2.02
2024-01-11T11:01:14.893Z,-1.97
2024-01-11T11:03:44.185Z,-1.94
2024-01-11T11:06:12.713Z,-1.91
2024-01-11T11:08:40.781Z,-1.88
2024-01-11T11:11:09.424Z,-1.84
2024-01-11T11:13:36.242Z,-1.81
2024-01-11T11:16:05.461Z,-1.78
2024-01-11T11:18:33.277Z,-1.73
2024-01-11T11:20:59.838Z,-1.66
2024-01-11T11:23:26.733Z,-1.62
2024-01-11T11:25:57.069Z,-1.56
2024-01-11T11:28:23.596Z,-1.48
2024-01-11T11:30:53.174Z,-1.40
2024-01-11T11:33:25.481Z,-1.35
2024-01-11T11:35:59.396Z,-1.31
2024-01-11T11:38:30.788Z,-1.25
2024-01-11T11:40:59.155Z,-1.23
2024-01-11T11:43:27.558Z,-1.18
2024-01-11T11:45:54.373Z,-1.13
2024-01-11T11:48:29.966Z,-1.08
2024-01-11T11:51:10.998Z,-1.05
2024-01-11T11:53:39.000Z,-1.05
2024-01-11T11:56:06.986Z,-0.95
2024-01-11T11:58:35.427Z,-0.83
2024-01-11T12:01:03.564Z,-0.80
2024-01-11T12:03:32.700Z,-0.73
2024-01-11T12:06:00.322Z,-0.67
2024-01-11T12:08:28.371Z,-0.61
2024-01-11T12:10:55.134Z,-0.52
2024-01-11T12:13:21.775Z,-0.46
2024-01-11T12:15:48.479Z,-0.45
2024-01-11T12:18:15.354Z,-0.36
2024-01-11T12:20:42.075Z,-0.28
2024-01-11T12:23:08.892Z,-0.20
2024-01-11T12:25:36.543Z,-0.22
2024-01-11T12:28:03.501Z,-0.19
2024-01-11T12:30:31.191Z,-0.15
2024-01-11T12:32:58.495Z,-0.07
2024-01-11T12:35:25.254Z,-0.03
2024-01-11T12:38:06.802Z,-0.01
2024-01-11T12:40:33.997Z,0.05
2024-01-11T12:43:00.662Z,0.06
2024-01-11T12:45:27.378Z,0.09
2024-01-11T12:47:56.057Z,0.13
2024-01-11T12:50:24.898Z,0.13
2024-01-11T12:53:21.980Z,0.16
2024-01-11T12:55:55.305Z,0.18
2024-01-11T12:58:27.233Z,0.17
2024-01-11T13:00:54.600Z,0.17
2024-01-11T13:03:21.833Z,0.13
2024-01-11T13:05:49.556Z,0.15
2024-01-11T13:08:17.815Z,0.17
2024-01-11T13:10:48.578Z,0.18
2024-01-11T13:13:15.246Z,0.15
2024-01-11T13:15:41.843Z,0.17
2024-01-11T13:18:08.470Z,0.23
2024-01-11T13:20:34.978Z,0.22
2024-01-11T13:23:15.137Z,0.24
2024-01-11T13:25:45.654Z,0.25
2024-01-11T13:28:13.048Z,0.31
2024-01-11T13:30:44.218Z,0.30
2024-01-11T13:33:14.197Z,0.30
2024-01-11T13:35:42.318Z,0.31
2024-01-11T13:38:09.001Z,0.35
2024-01-11T13:40:35.994Z,0.39
2024-01-11T13:43:04.076Z,0.43
2024-01-11T13:45:31.003Z,0.47
2024-01-11T13:47:58.001Z,0.47
2024-01-11T13:50:27.686Z,0.50
2024-01-11T13:52:54.472Z,0.50
2024-01-11T13:55:23.962Z,0.48
2024-01-11T13:57:51.729Z,0.47
2024-01-11T14:00:19.791Z,0.45
2024-01-11T14:02:47.992Z,0.42
2024-01-11T14:05:17.348Z,0.40
2024-01-11T14:07:48.833Z,0.40
2024-01-11T14:10:16.427Z,0.38
2024-01-11T14:12:43.120Z,0.42
2024-01-11T14:15:14.308Z,0.41
2024-01-11T14:17:42.010Z,0.42
2024-01-11T14:20:16.152Z,0.41
2024-01-11T14:22:48.443Z,0.40
2024-01-11T14:25:15.199Z,0.39
2024-01-11T14:27:42.383Z,0.41
2024-01-11T14:30:10.761Z,0.41
2024-01-11T14:32:38.515Z,0.43
2024-01-11T14:35:07.249Z,0.46
2024-01-11T14:37:35.984Z,0.45
2024-01-11T14:40:02.937Z,0.47
2024-01-11T14:42:29.454Z,0.48
2024-01-11T14:44:56.090Z,0.47
2024-01-11T14:47:23.387Z,0.49
2024-01-11T14:49:50.142Z,0.47
2024-01-11T14:52:18.433Z,0.46
2024-01-11T14:54:45.897Z,0.42
2024-01-11T14:57:14.361Z,0.40
2024-01-11T14:59:41.018Z,0.39
2024-01-11T15:02:07.839Z,0.39
2024-01-11T15:04:34.327Z,0.37
2024-01-11T15:07:00.843Z,0.37
2024-01-11T15:09:27.583Z,0.36
2024-01-11T15:11:54.318Z,0.34
2024-01-11T15:14:21.066Z,0.33
2024-01-11T15:16:49.167Z,0.31
2024-01-11T15:19:16.402Z,0.30
2024-01-11T15:21:48.617Z,0.30
2024-01-11T15:24:19.686Z,0.28
2024-01-11T15:26:47.308Z,0.25
2024-01-11T15:29:13.952Z,0.26
2024-01-11T15:31:42.681Z,0.23
2024-01-11T15:34:09.915Z,0.22
2024-01-11T15:36:36.526Z,0.23
2024-01-11T15:39:08.780Z,0.22
2024-01-11T15:41:48.244Z,0.22
2024-01-11T15:44:15.118Z,0.21
2024-01-11T15:46:41.896Z,0.20
2024-01-11T15:49:08.473Z,0.19
2024-01-11T15:51:35.112Z,0.16
2024-01-11T15:54:02.984Z,0.15
2024-01-11T15:56:29.625Z,0.15
2024-01-11T15:58:56.774Z,0.13
2024-01-11T16:01:23.645Z,0.13
2024-01-11T16:03:51.620Z,0.14
2024-01-11T16:06:18.263Z,0.13
2024-01-11T16:08:45.246Z,0.12
2024-01-11T16:11:12.380Z,0.11
2024-01-11T16:13:40.806Z,0.10
2024-01-11T16:16:07.765Z,0.09
2024-01-11T16:18:36.221Z,0.08
2024-01-11T16:21:02.899Z,0.07
2024-01-11T16:23:29.340Z,0.08
2024-01-11T16:25:55.765Z,0.06
2024-01-11T16:28:22.296Z,0.07
2024-01-11T16:30:49.086Z,0.09
2024-01-11T16:33:15.538Z,0.10
2024-01-11T16:35:49.610Z,0.09
2024-01-11T16:38:22.877Z,0.10
2024-01-11T16:40:49.521Z,0.11
2024-01-11T16:43:15.956Z,0.11
2024-01-11T16:45:42.554Z,0.11
2024-01-11T16:48:11.555Z,0.12
2024-01-11T16:50:38.405Z,0.12
2024-01-11T16:53:04.929Z,0.13
2024-01-11T16:55:31.649Z,0.12
2024-01-11T16:57:59.509Z,0.13
2024-01-11T17:00:26.132Z,0.12
2024-01-11T17:02:52.857Z,0.13
2024-01-11T17:05:19.743Z,0.12
2024-01-11T17:07:46.613Z,0.13
2024-01-11T17:10:13.178Z,0.13
2024-01-11T17:12:39.885Z,0.13
2024-01-11T17:15:06.941Z,0.15
2024-01-11T17:17:33.540Z,0.15
2024-01-11T17:20:00.282Z,0.16
2024-01-11T17:22:26.920Z,0.18
2024-01-11T17:24:53.881Z,0.16
2024-01-11T17:27:20.487Z,0.17
2024-01-11T17:29:47.334Z,0.17
2024-01-11T17:32:14.010Z,0.17
2024-01-11T17:34:40.619Z,0.18
2024-01-11T17:37:07.177Z,0.18
2024-01-11T17:39:33.671Z,0.21
2024-01-11T17:42:00.785Z,0.23
2024-01-11T17:44:28.581Z,0.25
2024-01-11T17:46:55.200Z,0.24
2024-01-11T17:49:21.762Z,0.26
2024-01-11T17:51:48.246Z,0.26
2024-01-11T17:54:14.772Z,0.26
2024-01-11T17:56:42.545Z,0.27
2024-01-11T17:59:10.212Z,0.29
2024-01-11T18:01:36.969Z,0.30
2024-01-11T18:04:04.097Z,0.32
2024-01-11T18:06:31.274Z,0.32
2024-01-11T18:08:57.906Z,0.33
2024-01-11T18:11:24.499Z,0.33
2024-01-11T18:13:51.024Z,0.32
2024-01-11T18:16:17.586Z,0.33
2024-01-11T18:18:45.095Z,0.33
2024-01-11T18:21:11.560Z,0.33
2024-01-11T18:23:37.985Z,0.34
2024-01-11T18:26:04.638Z,0.36
2024-01-11T18:28:31.154Z,0.38
2024-01-11T18:30:57.813Z,0.36
2024-01-11T18:33:26.068Z,0.36
2024-01-11T18:35:54.431Z,0.36
2024-01-11T18:38:22.419Z,0.37
2024-01-11T18:40:49.297Z,0.36
2024-01-11T18:43:18.751Z,0.37
2024-01-11T18:45:48.469Z,0.39
2024-01-11T18:48:15.261Z,0.40
2024-01-11T18:50:41.849Z,0.40
2024-01-11T18:53:08.598Z,0.41
2024-01-11T18:55:35.039Z,0.42
2024-01-11T18:58:02.248Z,0.43
2024-01-11T19:00:29.503Z,0.44
2024-01-11T19:02:56.243Z,0.46
2024-01-11T19:05:24.323Z,0.47
2024-01-11T19:07:50.865Z,0.48
2024-01-11T19:10:17.760Z,0.48
2024-01-11T19:12:44.671Z,0.49
2024-01-11T19:15:11.279Z,0.48
2024-01-11T19:17:38.146Z,0.50
2024-01-11T19:20:05.591Z,0.50
2024-01-11T19:22:32.085Z,0.51
2024-01-11T19:24:59.455Z,0.52
2024-01-11T19:27:26.386Z,0.53
2024-01-11T19:29:53.005Z,0.54
2024-01-11T19:32:19.475Z,0.54
2024-01-11T19:34:45.985Z,0.53
2024-01-11T19:37:14.849Z,0.52
2024-01-11T19:39:43.792Z,0.53
2024-01-11T19:42:10.255Z,0.52
2024-01-11T19:44:36.901Z,0.52
2024-01-11T19:47:03.609Z,0.54
2024-01-11T19:49:30.170Z,0.57
2024-01-11T19:51:56.732Z,0.55
2024-01-11T19:54:23.257Z,0.54
2024-01-11T19:56:49.711Z,0.54
2024-01-11T19:59:17.580Z,0.52
2024-01-11T20:01:44.186Z,0.54
2024-01-11T20:04:10.809Z,0.53
2024-01-11T20:06:37.383Z,0.55
2024-01-11T20:09:03.834Z,0.54
2024-01-11T20:11:30.274Z,0.55
2024-01-11T20:13:56.816Z,0.54
2024-01-11T20:16:23.242Z,0.53
2024-01-11T20:18:49.751Z,0.55
2024-01-11T20:21:16.430Z,0.56
2024-01-11T20:23:45.720Z,0.58
2024-01-11T20:26:13.621Z,0.58
2024-01-11T20:28:40.504Z,0.57
2024-01-11T20:31:07.265Z,0.57
2024-01-11T20:33:33.870Z,0.58
2024-01-11T20:36:03.944Z,0.58
2024-01-11T20:38:32.528Z,0.58
2024-01-11T20:40:58.980Z,0.56
2024-01-11T20:43:26.504Z,0.55
2024-01-11T20:45:53.566Z,0.55
2024-01-11T20:48:21.146Z,0.56
2024-01-11T20:50:48.454Z,0.58
2024-01-11T20:53:15.269Z,0.56
2024-01-11T20:55:41.786Z,0.58
2024-01-11T20:58:11.566Z,0.56
2024-01-11T21:00:38.412Z,0.55
2024-01-11T21:03:05.033Z,0.55
2024-01-11T21:05:32.200Z,0.55
2024-01-11T21:08:00.391Z,0.56
2024-01-11T21:10:27.758Z,0.56
2024-01-11T21:12:54.451Z,0.55
2024-01-11T21:15:20.884Z,0.54
2024-01-11T21:17:47.814Z,0.53
2024-01-11T21:20:14.464Z,0.55
2024-01-11T21:22:40.962Z,0.55
2024-01-11T21:25:07.849Z,0.56
2024-01-11T21:27:34.341Z,0.58
2024-01-11T21:30:00.969Z,0.56
2024-01-11T21:32:27.582Z,0.58
2024-01-11T21:34:54.057Z,0.56
2024-01-11T21:37:20.658Z,0.59
2024-01-11T21:39:47.083Z,0.60
2024-01-11T21:42:13.631Z,0.58
2024-01-11T21:44:40.134Z,0.59
2024-01-11T21:47:06.620Z,0.59
2024-01-11T21:49:33.338Z,0.59
2024-01-11T21:51:59.807Z,0.58
2024-01-11T21:54:26.299Z,0.58
2024-01-11T21:56:53.085Z,0.58
2024-01-11T21:59:19.598Z,0.58
2024-01-11T22:01:46.316Z,0.58
2024-01-11T22:04:13.657Z,0.59
2024-01-11T22:06:40.436Z,0.59
2024-01-11T22:09:07.052Z,0.58
2024-01-11T22:11:34.635Z,0.57
2024-01-11T22:14:03.364Z,0.58
2024-01-11T22:16:31.906Z,0.58
2024-01-11T22:18:58.615Z,0.61
2024-01-11T22:21:28.497Z,0.64
2024-01-11T22:23:56.437Z,0.65
2024-01-11T22:26:23.634Z,0.66
2024-01-11T22:28:50.377Z,0.66
2024-01-11T22:31:18.416Z,0.64
2024-01-11T22:33:46.972Z,0.66
2024-01-11T22:36:13.652Z,0.66
2024-01-11T22:38:40.323Z,0.68
2024-01-11T22:41:07.921Z,0.71
2024-01-11T22:43:34.991Z,0.79
2024-01-11T22:46:01.832Z,0.88
2024-01-11T22:48:28.384Z,0.89
2024-01-11T22:50:54.980Z,0.84
2024-01-11T22:53:21.543Z,0.82
2024-01-11T22:55:48.085Z,0.84
2024-01-11T22:58:14.688Z,0.82
2024-01-11T23:00:41.252Z,0.82
2024-01-11T23:03:07.881Z,0.81
2024-01-11T23:05:34.524Z,0.84
2024-01-11T23:08:01.060Z,0.87
2024-01-11T23:10:28.002Z,0.89
2024-01-11T23:12:54.867Z,0.91
2024-01-11T23:15:21.325Z,0.89
2024-01-11T23:17:48.169Z,0.89
2024-01-11T23:20:15.332Z,0.92
2024-01-11T23:22:41.810Z,0.95
2024-01-11T23:25:08.778Z,0.98
2024-01-11T23:27:35.390Z,1.01
2024-01-11T23:30:01.959Z,0.99
2024-01-11T23:32:29.948Z,1.00
2024-01-11T23:34:56.634Z,1.02
2024-01-11T23:37:23.071Z,1.05
2024-01-11T23:39:49.485Z,1.05
2024-01-11T23:42:15.932Z,1.03
2024-01-11T23:44:42.578Z,1.01
2024-01-11T23:47:09.807Z,1.02
2024-01-11T23:49:36.410Z,1.03
2024-01-11T23:52:03.074Z,1.01
2024-01-11T23:54:29.651Z,1.01
2024-01-11T23:56:56.197Z,1.04
2024-01-11T23:59:22.846Z,1.05
